Time;durP1;ratioP1;P1;durP2;ratioP2;P2;SDS_P1;SDS_P2;PMS_P1;PMS_P2;Temp;Humidity;BMP_temperature;BMP_pressure;BME280_temperature;BME280_humidity;BME280_pressure;Samples;Min_cycle;Max_cycle;Signal;HPM_P1;HPM_P2
2023/02/15 00:01:49;;;;;;;50.10;27.80;;;4.50;99.90;;;;;;5076030;28;20311;-65
2023/02/15 00:04:18;;;;;;;49.47;25.93;;;4.60;99.90;;;;;;5074355;28;20444;-65
2023/02/15 00:06:43;;;;;;;46.70;25.07;;;4.60;99.90;;;;;;5073124;28;20609;-66
2023/02/15 00:09:10;;;;;;;37.33;22.50;;;4.60;99.90;;;;;;5073222;28;20538;-66
2023/02/15 00:11:51;;;;;;;47.47;23.97;;;4.60;99.90;;;;;;5075424;28;20614;-65
2023/02/15 00:14:21;;;;;;;45.30;25.00;;;4.60;99.90;;;;;;5074385;28;21052;-65
2023/02/15 00:16:49;;;;;;;48.87;26.30;;;4.60;99.90;;;;;;5074212;28;20516;-66
2023/02/15 00:19:16;;;;;;;50.33;25.13;;;4.70;99.90;;;;;;5071993;28;20456;-65
2023/02/15 00:21:42;;;;;;;46.13;25.63;;;4.70;99.90;;;;;;5056107;28;20958;-65
2023/02/15 00:24:11;;;;;;;44.17;23.97;;;4.70;99.90;;;;;;5070954;28;21006;-65
2023/02/15 00:26:39;;;;;;;45.03;23.77;;;4.70;99.90;;;;;;5073126;28;21041;-66
2023/02/15 00:29:05;;;;;;;37.30;22.50;;;4.70;99.90;;;;;;5071803;28;20533;-66
2023/02/15 00:31:32;;;;;;;41.33;24.20;;;4.70;99.90;;;;;;5077352;28;20440;-66
2023/02/15 00:34:11;;;;;;;46.67;24.83;;;4.70;99.90;;;;;;5061427;28;20949;-66
2023/02/15 00:36:37;;;;;;;48.43;25.13;;;4.70;99.90;;;;;;5076763;28;20467;-66
2023/02/15 00:39:04;;;;;;;42.83;24.30;;;4.70;99.90;;;;;;5075386;28;20438;-66
2023/02/15 00:41:30;;;;;;;55.83;24.70;;;4.70;99.90;;;;;;5074229;28;20995;-66
2023/02/15 00:43:56;;;;;;;45.50;26.90;;;4.70;99.90;;;;;;5075197;28;20425;-66
2023/02/15 00:46:21;;;;;;;45.50;24.30;;;4.60;99.90;;;;;;5072294;28;21028;-66
2023/02/15 00:48:47;;;;;;;50.13;27.07;;;4.70;99.90;;;;;;5078925;28;20226;-66
2023/02/15 00:51:13;;;;;;;45.73;22.30;;;4.70;99.90;;;;;;5074288;28;20178;-65
2023/02/15 00:53:38;;;;;;;43.77;23.87;;;4.60;99.90;;;;;;5076966;28;20669;-66
2023/02/15 00:56:04;;;;;;;57.80;24.53;;;4.70;99.90;;;;;;5074734;28;20201;-66
2023/02/15 00:58:29;;;;;;;49.00;23.80;;;4.70;99.90;;;;;;5074306;28;20226;-66
2023/02/15 01:01:01;;;;;;;46.97;23.70;;;4.70;99.90;;;;;;5075104;28;20189;-66
2023/02/15 01:03:27;;;;;;;47.93;24.77;;;4.70;99.90;;;;;;5073933;28;20191;-65
2023/02/15 01:05:52;;;;;;;44.23;24.23;;;4.70;99.90;;;;;;5069720;28;20526;-65
2023/02/15 01:08:18;;;;;;;46.60;25.57;;;4.80;99.90;;;;;;5071505;28;20209;-67
2023/02/15 01:10:45;;;;;;;45.13;23.30;;;4.80;99.90;;;;;;5071214;28;20198;-66
2023/02/15 01:13:11;;;;;;;45.43;24.97;;;4.80;99.90;;;;;;5076446;28;20195;-66
2023/02/15 01:15:36;;;;;;;42.40;22.50;;;4.80;99.90;;;;;;5071850;28;20444;-66
2023/02/15 01:18:02;;;;;;;42.87;24.37;;;4.80;99.90;;;;;;5069062;28;20222;-67
2023/02/15 01:20:29;;;;;;;43.10;23.97;;;4.70;99.90;;;;;;5072572;28;20390;-66
2023/02/15 01:22:56;;;;;;;36.20;21.50;;;4.80;99.90;;;;;;5069108;28;20444;-67
2023/02/15 01:25:23;;;;;;;39.50;21.73;;;4.80;99.90;;;;;;5072800;28;20432;-66
2023/02/15 01:27:49;;;;;;;39.90;20.77;;;4.80;99.90;;;;;;5072418;28;20468;-65
2023/02/15 01:30:15;;;;;;;40.33;22.40;;;4.80;99.90;;;;;;5075094;28;20447;-66
2023/02/15 01:32:41;;;;;;;39.67;23.00;;;4.80;99.90;;;;;;5071509;28;20201;-66
2023/02/15 01:35:07;;;;;;;36.23;21.27;;;4.70;99.90;;;;;;5072140;28;20899;-66
2023/02/15 01:37:34;;;;;;;41.57;22.10;;;4.70;99.90;;;;;;5050929;28;21011;-66
2023/02/15 01:40:00;;;;;;;40.13;22.07;;;4.80;99.90;;;;;;5072421;28;20436;-67
2023/02/15 01:42:28;;;;;;;40.03;21.50;;;4.80;99.90;;;;;;5074629;28;20440;-66
2023/02/15 01:44:57;;;;;;;39.83;20.20;;;4.80;99.90;;;;;;5068796;28;20472;-66
2023/02/15 01:47:43;;;;;;;34.27;19.10;;;4.80;99.90;;;;;;5070447;28;20513;-66
2023/02/15 01:50:13;;;;;;;36.40;19.00;;;4.80;99.90;;;;;;5069335;28;21279;-66
2023/02/15 01:52:46;;;;;;;34.10;19.63;;;4.80;99.90;;;;;;5076228;28;20957;-66
2023/02/15 01:55:13;;;;;;;33.23;20.33;;;4.80;99.90;;;;;;5057213;28;20819;-66
2023/02/15 01:57:39;;;;;;;31.83;18.73;;;4.80;99.90;;;;;;5074814;28;20901;-66
2023/02/15 02:00:07;;;;;;;30.53;19.10;;;4.70;99.90;;;;;;5071476;28;20432;-67
2023/02/15 02:02:32;;;;;;;42.57;20.93;;;4.70;99.90;;;;;;5067053;28;20449;-66
2023/02/15 02:05:02;;;;;;;35.33;20.73;;;4.70;99.90;;;;;;5074142;28;20463;-66
2023/02/15 02:07:32;;;;;;;38.20;19.20;;;4.70;99.90;;;;;;5070478;28;20214;-66
2023/02/15 02:09:58;;;;;;;39.77;22.30;;;4.70;99.90;;;;;;5071802;28;20520;-66
2023/02/15 02:12:24;;;;;;;38.03;19.80;;;4.70;99.90;;;;;;5074392;28;21204;-66
2023/02/15 02:14:51;;;;;;;40.40;20.70;;;4.70;99.90;;;;;;5073286;28;20185;-66
2023/02/15 02:17:48;;;;;;;38.03;20.80;;;4.60;99.90;;;;;;5069564;28;20476;-66
2023/02/15 02:20:29;;;;;;;32.93;19.07;;;4.60;99.90;;;;;;5071103;28;20436;-67
2023/02/15 02:23:26;;;;;;;35.83;20.30;;;4.50;99.90;;;;;;5068365;28;20444;-66
2023/02/15 02:26:02;;;;;;;31.70;19.37;;;4.60;99.90;;;;;;5071460;28;20937;-66
2023/02/15 02:29:11;;;;;;;34.00;19.10;;;4.60;99.90;;;;;;5070283;28;21019;-66
2023/02/15 02:32:01;;;;;;;31.13;19.00;;;4.60;99.90;;;;;;5038925;28;20416;-66
2023/02/15 02:34:27;;;;;;;31.50;18.60;;;4.70;99.90;;;;;;5069394;28;20444;-66
2023/02/15 02:36:59;;;;;;;29.03;19.17;;;4.70;99.90;;;;;;5068356;28;21046;-66
2023/02/15 02:39:36;;;;;;;32.43;19.17;;;4.70;99.90;;;;;;5067139;28;20213;-66
2023/02/15 02:42:07;;;;;;;34.50;19.07;;;4.70;99.90;;;;;;5069605;28;20536;-66
2023/02/15 02:44:43;;;;;;;32.63;17.90;;;4.60;99.90;;;;;;5070422;28;20445;-66
2023/02/15 02:47:27;;;;;;;33.57;17.43;;;4.60;99.90;;;;;;5072054;28;20463;-65
2023/02/15 02:49:58;;;;;;;35.30;19.53;;;4.70;99.90;;;;;;5075289;28;20444;-66
2023/02/15 02:52:48;;;;;;;35.63;20.57;;;4.70;99.90;;;;;;5073379;28;20440;-66
2023/02/15 02:55:19;;;;;;;33.47;19.30;;;4.70;99.90;;;;;;5059366;28;20954;-66
2023/02/15 02:58:00;;;;;;;35.93;18.40;;;4.70;99.90;;;;;;5074362;28;20555;-65
2023/02/15 03:00:30;;;;;;;28.87;17.60;;;4.70;99.90;;;;;;5076813;28;20440;-66
2023/02/15 03:03:05;;;;;;;31.43;18.20;;;4.70;99.90;;;;;;5076277;28;20436;-66
2023/02/15 03:05:33;;;;;;;37.10;22.27;;;4.70;99.90;;;;;;5077066;28;20862;-66
2023/02/15 03:08:05;;;;;;;31.60;17.67;;;4.60;99.90;;;;;;5075683;28;20533;-65
2023/02/15 03:10:32;;;;;;;34.80;19.13;;;4.40;99.90;;;;;;5059235;28;21221;-66
2023/02/15 03:12:58;;;;;;;31.27;18.97;;;4.50;99.90;;;;;;5073700;28;20456;-66
2023/02/15 03:18:25;;;;;;;39.27;20.90;;;4.50;99.90;;;;;;5076117;28;20474;-66
2023/02/15 03:20:52;;;;;;;35.93;20.03;;;4.40;99.90;;;;;;5077623;28;20484;-66
2023/02/15 03:23:21;;;;;;;37.83;19.90;;;4.30;99.90;;;;;;5073733;28;20449;-66
2023/02/15 03:25:52;;;;;;;35.20;21.17;;;4.40;99.90;;;;;;5073262;28;20444;-66
2023/02/15 03:28:24;;;;;;;32.30;19.50;;;4.40;99.90;;;;;;5077043;28;20507;-66
2023/02/15 03:30:55;;;;;;;41.00;23.13;;;4.30;99.90;;;;;;5075867;28;21205;-65
2023/02/15 03:33:23;;;;;;;35.50;20.60;;;4.30;99.90;;;;;;5072131;28;20441;-66
2023/02/15 03:36:22;;;;;;;31.93;20.13;;;4.30;99.90;;;;;;5073507;28;20440;-66
2023/02/15 03:38:59;;;;;;;33.40;19.57;;;4.30;99.90;;;;;;5074164;28;20845;-66
2023/02/15 03:41:30;;;;;;;35.60;18.27;;;4.30;99.90;;;;;;5070668;28;20906;-66
2023/02/15 03:44:13;;;;;;;30.70;19.13;;;4.40;99.90;;;;;;5069365;28;20512;-66
2023/02/15 03:46:51;;;;;;;36.90;20.27;;;4.40;99.90;;;;;;5071178;28;20471;-66
2023/02/15 03:49:37;;;;;;;34.60;18.80;;;4.40;99.90;;;;;;5069819;28;20732;-66
2023/02/15 03:52:05;;;;;;;37.80;20.77;;;4.40;99.90;;;;;;5071568;28;20483;-66
2023/02/15 03:54:42;;;;;;;37.40;20.30;;;4.40;99.90;;;;;;5073357;28;20467;-66
2023/02/15 04:03:27;;;;;;;30.70;18.80;;;4.50;99.90;;;;;;5072537;28;21040;-66
2023/02/15 04:05:53;;;;;;;33.83;18.87;;;4.50;99.90;;;;;;5071195;28;20467;-66
2023/02/15 04:08:18;;;;;;;30.43;17.87;;;4.50;99.90;;;;;;5071759;28;21133;-65
2023/02/15 04:10:53;;;;;;;35.73;18.73;;;4.50;99.90;;;;;;5073239;28;20882;-66
2023/02/15 04:13:21;;;;;;;38.40;19.70;;;4.40;99.90;;;;;;5076971;28;20289;-66
2023/02/15 04:16:04;;;;;;;32.57;18.57;;;4.40;99.90;;;;;;5072380;28;20783;-66
2023/02/15 04:26:57;;;;;;;32.07;18.10;;;4.30;99.90;;;;;;5069116;28;20459;-66
2023/02/15 04:29:24;;;;;;;36.40;20.63;;;4.30;99.90;;;;;;5072696;28;20433;-65
2023/02/15 04:31:52;;;;;;;31.83;19.27;;;4.30;99.90;;;;;;5069891;28;20192;-66
2023/02/15 04:34:17;;;;;;;30.50;19.10;;;4.30;99.90;;;;;;5073214;28;20667;-63
2023/02/15 04:36:43;;;;;;;28.83;19.00;;;4.30;99.90;;;;;;5074054;28;21004;-66
2023/02/15 04:39:12;;;;;;;34.97;19.67;;;4.30;99.90;;;;;;5077664;28;20175;-65
2023/02/15 04:41:37;;;;;;;33.97;19.53;;;4.30;99.90;;;;;;5071040;28;20428;-65
2023/02/15 04:44:03;;;;;;;32.03;18.73;;;4.30;99.90;;;;;;5072108;28;20501;-66
2023/02/15 04:46:29;;;;;;;29.80;19.43;;;4.30;99.90;;;;;;5073103;28;20202;-66
2023/02/15 04:48:55;;;;;;;27.77;18.37;;;4.20;99.90;;;;;;5073322;28;21722;-65
2023/02/15 04:51:21;;;;;;;32.77;19.53;;;4.20;99.90;;;;;;5074119;28;20261;-66
2023/02/15 04:53:46;;;;;;;28.37;17.10;;;4.20;99.90;;;;;;5072960;28;20515;-66
2023/02/15 04:56:12;;;;;;;31.63;17.27;;;4.10;99.90;;;;;;5072661;28;20198;-66
2023/02/15 04:58:40;;;;;;;34.13;20.50;;;4.00;99.90;;;;;;5073727;28;20258;-66
2023/02/15 05:01:06;;;;;;;29.80;18.10;;;4.10;99.90;;;;;;5071846;28;20265;-66
2023/02/15 05:03:32;;;;;;;30.40;18.80;;;4.00;99.90;;;;;;5071611;28;20433;-65
2023/02/15 05:05:58;;;;;;;32.17;19.30;;;4.10;99.90;;;;;;5075525;28;20472;-65
2023/02/15 05:08:23;;;;;;;29.13;18.00;;;4.10;99.90;;;;;;5071084;28;20255;-65
2023/02/15 05:10:49;;;;;;;36.63;19.77;;;4.20;99.90;;;;;;5070067;28;20186;-66
2023/02/15 05:13:15;;;;;;;30.43;18.50;;;4.10;99.90;;;;;;5055550;28;20182;-65
2023/02/15 05:15:40;;;;;;;29.97;17.87;;;4.10;99.90;;;;;;5067365;28;20636;-66
2023/02/15 05:18:07;;;;;;;31.43;17.50;;;4.20;99.90;;;;;;5069953;28;20478;-66
2023/02/15 05:20:33;;;;;;;32.77;18.00;;;4.20;99.90;;;;;;5067251;28;20261;-66
2023/02/15 05:22:58;;;;;;;25.57;16.27;;;4.00;99.90;;;;;;5074507;28;20610;-66
2023/02/15 05:28:19;;;;;;;26.73;16.37;;;3.90;99.90;;;;;;5070733;28;20235;-66
2023/02/15 05:30:45;;;;;;;31.37;17.40;;;3.90;99.90;;;;;;5070866;28;20447;-66
2023/02/15 05:33:10;;;;;;;29.63;19.20;;;3.90;99.90;;;;;;5070428;28;20460;-66
2023/02/15 05:35:36;;;;;;;35.37;17.50;;;3.90;99.90;;;;;;5072840;28;20517;-66
2023/02/15 05:38:02;;;;;;;30.03;17.70;;;4.00;99.90;;;;;;5053597;28;20198;-66
2023/02/15 05:40:27;;;;;;;28.80;18.10;;;3.90;99.90;;;;;;5071916;28;20234;-66
2023/02/15 05:42:53;;;;;;;30.50;20.00;;;4.00;99.90;;;;;;5072139;28;21398;-66
2023/02/15 05:45:18;;;;;;;33.37;18.40;;;3.90;99.90;;;;;;5071024;28;20757;-67
2023/02/15 05:47:44;;;;;;;30.63;17.97;;;3.90;99.90;;;;;;5068307;28;20206;-67
2023/02/15 05:50:11;;;;;;;31.20;18.23;;;4.00;99.90;;;;;;5069079;28;20186;-67
2023/02/15 05:52:36;;;;;;;30.63;19.00;;;4.10;99.90;;;;;;5070344;28;20185;-66
2023/02/15 05:55:04;;;;;;;29.77;17.47;;;4.10;99.90;;;;;;5055316;28;20432;-66
2023/02/15 05:57:29;;;;;;;34.67;18.13;;;4.00;99.90;;;;;;5069807;28;20206;-66
2023/02/15 05:59:55;;;;;;;34.70;18.87;;;4.00;99.90;;;;;;5068590;28;20490;-66
2023/02/15 06:02:21;;;;;;;32.87;18.30;;;3.90;99.90;;;;;;5071489;28;20424;-66
2023/02/15 06:04:46;;;;;;;32.60;17.83;;;3.80;99.90;;;;;;5071666;28;20234;-66
2023/02/15 06:07:12;;;;;;;37.27;19.50;;;3.80;99.90;;;;;;5071395;28;20659;-66
2023/02/15 06:09:37;;;;;;;35.43;19.20;;;3.80;99.90;;;;;;5069347;28;20632;-66
2023/02/15 06:12:03;;;;;;;30.63;19.13;;;3.80;99.90;;;;;;5073961;28;20277;-66
2023/02/15 06:14:29;;;;;;;32.73;17.20;;;3.90;99.90;;;;;;5070036;28;20920;-66
2023/02/15 06:16:54;;;;;;;32.23;17.13;;;3.80;99.90;;;;;;5066083;28;20676;-67
2023/02/15 06:19:20;;;;;;;33.53;17.33;;;3.80;99.90;;;;;;5069155;28;20579;-67
2023/02/15 06:21:47;;;;;;;33.77;16.93;;;3.90;99.90;;;;;;5072274;28;20378;-67
2023/02/15 06:24:12;;;;;;;30.67;16.20;;;3.90;99.90;;;;;;5073600;28;20459;-67
2023/02/15 06:26:38;;;;;;;27.40;17.00;;;3.70;99.90;;;;;;5075217;28;20456;-67
2023/02/15 06:29:04;;;;;;;31.87;17.30;;;3.80;99.90;;;;;;5064000;28;20194;-67
2023/02/15 06:31:29;;;;;;;29.93;15.43;;;3.80;99.90;;;;;;5070976;28;20171;-66
2023/02/15 06:34:00;;;;;;;29.53;16.07;;;3.60;99.90;;;;;;5055393;28;20813;-66
2023/02/15 06:36:27;;;;;;;27.40;15.73;;;3.70;99.90;;;;;;5057831;28;20205;-66
2023/02/15 06:38:53;;;;;;;32.40;17.50;;;3.70;99.90;;;;;;5070541;28;20514;-67
2023/02/15 06:41:18;;;;;;;30.23;15.27;;;3.70;99.90;;;;;;5074798;28;20523;-67
2023/02/15 06:43:44;;;;;;;38.57;17.37;;;3.60;99.90;;;;;;5068780;28;20193;-67
2023/02/15 06:46:09;;;;;;;30.37;18.30;;;3.70;99.90;;;;;;5070532;28;20206;-67
2023/02/15 06:48:35;;;;;;;37.33;14.53;;;3.50;99.90;;;;;;5074893;28;20182;-66
2023/02/15 06:51:01;;;;;;;31.97;14.87;;;3.60;99.90;;;;;;5072065;28;20182;-67
2023/02/15 06:53:26;;;;;;;26.47;14.57;;;3.50;99.90;;;;;;5073394;28;20194;-66
2023/02/15 06:55:52;;;;;;;32.80;15.50;;;3.50;99.90;;;;;;5051484;28;20203;-67
2023/02/15 06:58:17;;;;;;;30.43;14.57;;;3.60;99.90;;;;;;5071554;28;20214;-66
2023/02/15 07:00:43;;;;;;;29.80;14.93;;;3.60;99.90;;;;;;5056805;28;20271;-66
2023/02/15 07:03:09;;;;;;;30.00;17.10;;;3.60;99.90;;;;;;5071519;28;20224;-67
2023/02/15 07:05:34;;;;;;;28.03;14.93;;;3.70;99.90;;;;;;5070862;28;20195;-67
2023/02/15 07:08:00;;;;;;;28.87;13.97;;;3.70;99.90;;;;;;5070727;28;20179;-67
2023/02/15 07:10:27;;;;;;;26.97;13.60;;;3.70;99.90;;;;;;5070572;28;20210;-67
2023/02/15 07:12:53;;;;;;;24.60;13.20;;;3.50;99.90;;;;;;5068089;28;20174;-66
2023/02/15 07:15:22;;;;;;;25.50;13.63;;;3.30;99.90;;;;;;5054627;28;20977;-67
2023/02/15 07:17:49;;;;;;;28.80;14.97;;;3.30;99.90;;;;;;5067782;28;20864;-67
2023/02/15 07:20:22;;;;;;;28.83;15.23;;;3.40;99.90;;;;;;5048893;28;21426;-67
2023/02/15 07:22:48;;;;;;;23.67;14.00;;;3.50;99.90;;;;;;5068958;28;20433;-66
2023/02/15 07:25:14;;;;;;;32.37;17.20;;;3.60;99.90;;;;;;5064879;28;20493;-66
2023/02/15 07:27:40;;;;;;;27.73;17.30;;;3.70;99.90;;;;;;5069566;28;20969;-67
2023/02/15 07:30:08;;;;;;;29.73;16.07;;;3.80;99.90;;;;;;5054586;28;20235;-67
2023/02/15 07:32:34;;;;;;;30.47;18.00;;;3.90;99.90;;;;;;5065575;28;20433;-67
2023/02/15 07:34:59;;;;;;;33.47;18.07;;;3.80;99.90;;;;;;5049804;28;20440;-68
2023/02/15 07:37:26;;;;;;;35.67;17.50;;;3.70;99.90;;;;;;5066063;28;20218;-67
2023/02/15 07:39:52;;;;;;;37.80;17.60;;;3.60;99.90;;;;;;5070557;28;20939;-68
2023/02/15 07:42:19;;;;;;;34.60;17.17;;;3.60;99.90;;;;;;5071163;28;20531;-67
2023/02/15 07:44:45;;;;;;;31.30;17.33;;;3.70;99.90;;;;;;5069849;28;20183;-67
2023/02/15 07:47:11;;;;;;;31.97;18.60;;;3.70;99.90;;;;;;5070877;28;20475;-68
2023/02/15 07:49:37;;;;;;;39.77;17.67;;;3.70;99.90;;;;;;5070897;28;20380;-66
2023/02/15 07:52:03;;;;;;;42.70;18.60;;;3.80;99.90;;;;;;5070144;28;20532;-66
2023/02/15 07:54:29;;;;;;;32.50;17.47;;;3.80;99.90;;;;;;5062601;28;20895;-67
2023/02/15 07:56:54;;;;;;;32.63;16.20;;;3.80;99.90;;;;;;5066388;28;20213;-66
2023/02/15 07:59:20;;;;;;;32.13;16.47;;;3.80;99.90;;;;;;5066231;28;20534;-67
2023/02/15 08:01:46;;;;;;;29.97;16.93;;;3.70;99.90;;;;;;5073371;28;20210;-66
2023/02/15 08:04:11;;;;;;;31.60;16.37;;;3.70;99.90;;;;;;5056369;28;20193;-67
2023/02/15 08:06:37;;;;;;;28.13;15.17;;;3.80;99.90;;;;;;5074296;28;20296;-66
2023/02/15 08:09:08;;;;;;;30.53;14.90;;;3.70;99.90;;;;;;5072758;28;20775;-67
2023/02/15 08:11:36;;;;;;;28.20;15.67;;;3.60;99.90;;;;;;5072432;28;20490;-67
2023/02/15 08:14:12;;;;;;;27.43;13.80;;;3.70;99.90;;;;;;5070820;28;20449;-66
2023/02/15 08:16:45;;;;;;;30.30;14.40;;;3.60;99.90;;;;;;5072587;28;20496;-66
2023/02/15 08:19:18;;;;;;;30.10;15.60;;;3.70;99.90;;;;;;5070739;28;20451;-66
2023/02/15 08:21:50;;;;;;;32.97;14.93;;;3.70;99.90;;;;;;5074430;28;20424;-66
2023/02/15 08:24:18;;;;;;;36.20;16.27;;;3.70;99.90;;;;;;5068818;28;20444;-67
2023/02/15 08:26:46;;;;;;;27.90;15.30;;;3.60;99.90;;;;;;5066033;28;20452;-67
2023/02/15 08:29:13;;;;;;;23.87;14.13;;;3.50;99.90;;;;;;5069987;28;20483;-66
2023/02/15 08:31:40;;;;;;;31.50;15.27;;;3.60;99.90;;;;;;5068722;28;20534;-66
2023/02/15 08:34:06;;;;;;;29.67;15.07;;;3.40;99.90;;;;;;5071637;28;20804;-66
2023/02/15 08:36:32;;;;;;;34.93;16.90;;;3.30;99.90;;;;;;5055787;28;20456;-67
2023/02/15 08:38:59;;;;;;;31.03;15.43;;;3.50;99.90;;;;;;5070283;28;20439;-66
2023/02/15 08:41:27;;;;;;;26.47;15.57;;;3.70;99.90;;;;;;5071086;28;20942;-67
2023/02/15 08:43:55;;;;;;;26.70;14.50;;;3.80;99.90;;;;;;5069425;28;20433;-67
2023/02/15 08:46:23;;;;;;;22.37;13.73;;;3.90;99.90;;;;;;5070884;28;20483;-66
2023/02/15 08:48:49;;;;;;;26.70;15.73;;;4.00;99.90;;;;;;5063551;28;20448;-67
2023/02/15 08:51:23;;;;;;;25.50;15.47;;;4.10;99.90;;;;;;5073393;28;21052;-67
2023/02/15 08:53:52;;;;;;;29.70;15.27;;;4.30;99.90;;;;;;5067104;28;20444;-66
2023/02/15 08:56:19;;;;;;;30.50;17.20;;;4.30;99.90;;;;;;5066383;28;20483;-66
2023/02/15 08:58:45;;;;;;;30.33;17.30;;;4.50;99.90;;;;;;5071257;28;20874;-67
2023/02/15 09:01:13;;;;;;;26.23;14.47;;;4.40;99.90;;;;;;5057115;28;20421;-69
2023/02/15 09:03:39;;;;;;;29.40;16.00;;;4.40;99.90;;;;;;5067478;28;20959;-68
2023/02/15 09:06:05;;;;;;;26.07;13.80;;;4.50;99.90;;;;;;5069905;28;20475;-65
2023/02/15 09:08:31;;;;;;;27.07;15.77;;;4.60;99.90;;;;;;5069802;28;20586;-67
2023/02/15 09:11:22;;;;;;;32.37;16.60;;;4.60;99.90;;;;;;5051663;28;20436;-67
2023/02/15 09:13:55;;;;;;;37.10;17.80;;;4.60;99.90;;;;;;5065806;28;20205;-68
2023/02/15 09:16:23;;;;;;;31.30;17.70;;;4.70;99.90;;;;;;5053896;28;20465;-68
2023/02/15 09:18:49;;;;;;;26.50;16.93;;;4.60;99.90;;;;;;5072439;28;20832;-69
2023/02/15 09:21:18;;;;;;;34.90;17.63;;;4.70;99.90;;;;;;5071873;28;20428;-67
2023/02/15 09:23:46;;;;;;;29.93;17.60;;;4.70;99.90;;;;;;5069069;28;20437;-67
2023/02/15 09:26:14;;;;;;;37.67;17.43;;;4.50;99.90;;;;;;5072295;28;20566;-68
2023/02/15 09:28:41;;;;;;;34.90;18.00;;;4.60;99.90;;;;;;5070115;28;20455;-68
2023/02/15 09:31:14;;;;;;;37.00;18.17;;;4.50;99.90;;;;;;5069177;28;20437;-67
2023/02/15 09:33:41;;;;;;;35.67;18.77;;;4.50;99.90;;;;;;5068631;28;20736;-69
2023/02/15 09:36:21;;;;;;;33.70;19.00;;;4.50;99.90;;;;;;5065115;28;20473;-66
2023/02/15 09:38:52;;;;;;;32.70;17.00;;;4.50;99.90;;;;;;5066123;28;21062;-68
2023/02/15 09:41:48;;;;;;;41.03;19.57;;;4.60;99.90;;;;;;5068130;28;20858;-67
2023/02/15 09:44:32;;;;;;;35.83;19.93;;;4.70;99.90;;;;;;5068637;28;20447;-68
2023/02/15 09:47:41;;;;;;;33.40;19.37;;;4.70;99.90;;;;;;5065235;28;20827;-68
2023/02/15 09:50:31;;;;;;;35.33;19.27;;;4.60;99.90;;;;;;5066268;28;20444;-68
2023/02/15 09:53:14;;;;;;;32.93;17.50;;;4.70;99.90;;;;;;5066290;28;20440;-66
2023/02/15 09:55:46;;;;;;;35.40;19.73;;;4.40;99.90;;;;;;5067021;28;20452;-68
2023/02/15 09:58:30;;;;;;;37.23;20.43;;;4.50;99.90;;;;;;5054122;28;20520;-67
2023/02/15 10:01:14;;;;;;;31.67;17.90;;;4.50;99.90;;;;;;5069534;28;20436;-67
2023/02/15 10:04:04;;;;;;;33.37;18.50;;;4.70;99.90;;;;;;5080119;28;20812;-66
2023/02/15 10:06:38;;;;;;;37.53;17.83;;;4.60;99.90;;;;;;5078557;28;20464;-70
2023/02/15 10:09:28;;;;;;;36.23;19.40;;;4.60;99.90;;;;;;5073948;28;20444;-68
2023/02/15 10:12:13;;;;;;;33.20;18.60;;;4.70;99.90;;;;;;5071597;28;20426;-67
2023/02/15 10:14:58;;;;;;;33.40;18.37;;;4.60;99.90;;;;;;5070920;28;20548;-68
2023/02/15 10:17:51;;;;;;;34.83;19.27;;;4.50;99.90;;;;;;5055899;28;20476;-69
2023/02/15 10:20:36;;;;;;;40.10;22.33;;;4.70;99.90;;;;;;5049701;28;20440;-68
2023/02/15 10:23:21;;;;;;;35.17;18.10;;;4.80;99.90;;;;;;5072253;28;20884;-68
2023/02/15 10:26:16;;;;;;;33.13;18.60;;;4.80;99.90;;;;;;5074134;28;20649;-68
2023/02/15 10:28:44;;;;;;;35.27;17.70;;;4.80;99.90;;;;;;5073993;28;20965;-68
2023/02/15 10:31:47;;;;;;;37.80;19.70;;;4.70;99.90;;;;;;5072983;28;20440;-68
2023/02/15 10:34:42;;;;;;;38.07;19.97;;;4.70;99.90;;;;;;5069014;28;20479;-68
2023/02/15 10:37:13;;;;;;;34.30;19.47;;;4.60;99.90;;;;;;5060216;28;20479;-68
2023/02/15 10:39:51;;;;;;;35.67;19.63;;;4.80;99.90;;;;;;5072975;28;20816;-68
2023/02/15 10:42:29;;;;;;;37.43;19.90;;;5.00;99.90;;;;;;5073953;28;22001;-66
2023/02/15 10:45:19;;;;;;;32.70;17.60;;;5.10;99.90;;;;;;5075159;28;20451;-67
2023/02/15 10:48:20;;;;;;;34.40;17.50;;;5.00;99.90;;;;;;5051624;28;20560;-67
2023/02/15 10:50:53;;;;;;;29.73;16.70;;;5.00;99.90;;;;;;5076473;28;20443;-67
2023/02/15 10:53:39;;;;;;;35.87;19.27;;;5.10;99.90;;;;;;5074838;28;20432;-67
2023/02/15 10:56:20;;;;;;;32.00;17.77;;;5.10;99.90;;;;;;5069442;28;20455;-68
2023/02/15 10:58:45;;;;;;;32.37;16.70;;;5.00;99.90;;;;;;5073299;28;20563;-67
2023/02/15 11:01:30;;;;;;;38.83;17.10;;;5.10;99.90;;;;;;5070370;28;20446;-69
2023/02/15 11:04:22;;;;;;;33.90;16.60;;;5.20;99.90;;;;;;5070610;28;20163;-69
2023/02/15 11:06:54;;;;;;;32.73;17.37;;;5.20;99.90;;;;;;5068739;28;20452;-67
2023/02/15 11:09:23;;;;;;;32.87;18.67;;;5.10;99.90;;;;;;5070149;28;20459;-67
2023/02/15 11:11:57;;;;;;;28.13;16.27;;;5.00;99.90;;;;;;5070007;28;20461;-67
2023/02/15 11:14:49;;;;;;;32.53;18.03;;;5.00;99.90;;;;;;5056804;28;20439;-67
2023/02/15 11:17:21;;;;;;;34.23;19.90;;;5.00;99.90;;;;;;5055706;28;20472;-68
2023/02/15 11:20:11;;;;;;;36.40;19.70;;;4.80;99.90;;;;;;5069116;28;20793;-68
2023/02/15 11:22:37;;;;;;;31.80;17.13;;;5.00;99.90;;;;;;5077050;28;20504;-67
2023/02/15 11:25:17;;;;;;;29.30;17.43;;;5.00;99.90;;;;;;5071495;28;21315;-67
2023/02/15 11:27:45;;;;;;;33.07;17.93;;;5.10;99.90;;;;;;5074339;28;20437;-68
2023/02/15 11:30:14;;;;;;;29.00;17.17;;;5.30;99.90;;;;;;5071275;28;20449;-68
2023/02/15 11:32:45;;;;;;;32.03;17.13;;;5.50;99.90;;;;;;5074138;28;20452;-68
2023/02/15 11:35:24;;;;;;;26.97;16.60;;;5.50;99.90;;;;;;5072242;28;20464;-69
2023/02/15 11:38:31;;;;;;;30.13;16.10;;;5.50;99.90;;;;;;5051172;28;21190;-66
2023/02/15 11:41:16;;;;;;;43.27;18.17;;;5.50;99.90;;;;;;4980075;28;21144;-68
2023/02/15 11:43:56;;;;;;;32.20;17.90;;;5.40;99.90;;;;;;4990664;28;20707;-69
2023/02/15 11:46:21;;;;;;;31.40;17.10;;;5.50;99.90;;;;;;5053234;28;20471;-69
2023/02/15 11:48:47;;;;;;;30.17;17.87;;;5.70;99.90;;;;;;5069034;28;20467;-69
2023/02/15 11:51:16;;;;;;;29.30;17.37;;;5.90;99.90;;;;;;5066467;28;20185;-70
2023/02/15 11:53:44;;;;;;;28.50;16.10;;;5.90;99.90;;;;;;5070189;28;20952;-69
2023/02/15 11:56:16;;;;;;;25.30;15.93;;;5.90;99.90;;;;;;5071818;28;20495;-69
2023/02/15 11:58:53;;;;;;;29.40;16.40;;;6.10;99.90;;;;;;5068892;28;20472;-70
2023/02/15 12:01:30;;;;;;;25.80;15.73;;;6.10;99.90;;;;;;5053183;28;20609;-68
2023/02/15 12:04:07;;;;;;;23.00;15.10;;;6.30;99.90;;;;;;5068633;28;20424;-69
2023/02/15 12:06:38;;;;;;;26.07;16.87;;;6.40;99.90;;;;;;5071872;28;20461;-69
2023/02/15 12:09:22;;;;;;;25.77;16.43;;;6.50;99.90;;;;;;5068750;28;20436;-70
2023/02/15 12:11:48;;;;;;;26.23;16.40;;;6.50;99.90;;;;;;5066612;28;20473;-70
2023/02/15 12:14:16;;;;;;;27.90;17.93;;;6.70;99.90;;;;;;5066629;28;20531;-70
2023/02/15 12:16:51;;;;;;;34.57;18.90;;;6.70;99.90;;;;;;5068141;28;20621;-71
2023/02/15 12:19:42;;;;;;;48.63;20.67;;;6.90;99.90;;;;;;5066024;28;20424;-71
2023/02/15 12:22:24;;;;;;;30.77;16.13;;;7.20;99.90;;;;;;5064993;28;20546;-70
2023/02/15 12:24:54;;;;;;;26.93;15.97;;;7.00;99.90;;;;;;5067468;28;20429;-70
2023/02/15 12:27:42;;;;;;;29.20;16.57;;;7.20;99.90;;;;;;5070353;28;20880;-70
2023/02/15 12:30:24;;;;;;;27.03;16.50;;;7.30;99.90;;;;;;5066694;28;20455;-67
2023/02/15 12:32:59;;;;;;;25.37;16.23;;;7.50;99.90;;;;;;5070111;28;20464;-69
2023/02/15 12:35:30;;;;;;;27.30;17.37;;;7.60;99.90;;;;;;5068200;28;20440;-69
2023/02/15 12:38:10;;;;;;;25.67;16.50;;;7.60;99.90;;;;;;5060590;28;20875;-69
2023/02/15 12:40:36;;;;;;;24.80;16.30;;;7.50;99.90;;;;;;5065911;28;20425;-69
2023/02/15 12:43:08;;;;;;;24.57;16.03;;;7.80;99.90;;;;;;5066186;28;20827;-75
2023/02/15 12:45:36;;;;;;;24.37;17.30;;;8.10;99.90;;;;;;5070601;28;20461;-70
2023/02/15 12:48:16;;;;;;;23.47;15.63;;;8.40;99.90;;;;;;5052866;28;20520;-71
2023/02/15 12:50:43;;;;;;;24.33;16.23;;;8.80;99.90;;;;;;5072856;28;20431;-72
2023/02/15 12:53:36;;;;;;;22.57;16.87;;;9.10;99.90;;;;;;5071094;28;21011;-69
2023/02/15 12:56:03;;;;;;;23.23;15.07;;;9.50;99.90;;;;;;5048099;28;20460;-69
2023/02/15 12:58:31;;;;;;;24.00;16.00;;;9.70;99.90;;;;;;5072404;28;20460;-69
2023/02/15 13:01:08;;;;;;;25.07;18.60;;;9.70;99.90;;;;;;5068961;28;20777;-69
2023/02/15 13:03:38;;;;;;;22.80;16.50;;;9.70;99.90;;;;;;5071614;28;20954;-68
2023/02/15 13:06:07;;;;;;;26.47;18.00;;;9.90;99.90;;;;;;5069938;28;20460;-68
2023/02/15 13:08:38;;;;;;;20.93;15.63;;;10.30;99.90;;;;;;5073577;28;20865;-68
2023/02/15 13:11:11;;;;;;;20.37;15.53;;;10.50;99.90;;;;;;5071800;28;20858;-68
2023/02/15 13:13:57;;;;;;;23.50;16.23;;;10.80;99.90;;;;;;5076512;28;20432;-68
2023/02/15 13:16:30;;;;;;;25.90;17.77;;;10.80;99.90;;;;;;5068459;28;20543;-68
2023/02/15 13:18:58;;;;;;;23.03;16.27;;;10.90;99.90;;;;;;5067523;28;20464;-68